sensor_id;sensor_type;location;lat;lon;timestamp;P1;durP1;ratioP1;P2;durP2;ratioP2
57401;SDS011;43226;51.110;6.998;2022-07-06T00:01:00;6.37;;;2.40;;
57401;SDS011;43226;51.110;6.998;2022-07-06T00:03:25;2.90;;;2.13;;
57401;SDS011;43226;51.110;6.998;2022-07-06T00:05:50;5.13;;;2.53;;
57401;SDS011;43226;51.110;6.998;2022-07-06T00:08:16;4.13;;;2.30;;
57401;SDS011;43226;51.110;6.998;2022-07-06T00:10:41;8.93;;;2.30;;
57401;SDS011;43226;51.110;6.998;2022-07-06T00:13:06;6.57;;;2.20;;
57401;SDS011;43226;51.110;6.998;2022-07-06T00:15:31;2.90;;;2.20;;
57401;SDS011;43226;51.110;6.998;2022-07-06T00:17:56;3.40;;;1.90;;
57401;SDS011;43226;51.110;6.998;2022-07-06T00:20:22;4.00;;;2.13;;
57401;SDS011;43226;51.110;6.998;2022-07-06T00:22:47;3.23;;;2.10;;
57401;SDS011;43226;51.110;6.998;2022-07-06T00:25:12;3.63;;;2.37;;
57401;SDS011;43226;51.110;6.998;2022-07-06T00:27:37;4.20;;;2.50;;
57401;SDS011;43226;51.110;6.998;2022-07-06T00:30:02;4.53;;;2.57;;
57401;SDS011;43226;51.110;6.998;2022-07-06T00:32:28;7.90;;;2.67;;
57401;SDS011;43226;51.110;6.998;2022-07-06T00:34:53;6.90;;;2.40;;
57401;SDS011;43226;51.110;6.998;2022-07-06T00:37:19;6.67;;;2.37;;
57401;SDS011;43226;51.110;6.998;2022-07-06T00:39:44;4.87;;;2.47;;
57401;SDS011;43226;51.110;6.998;2022-07-06T00:42:09;8.93;;;2.37;;
57401;SDS011;43226;51.110;6.998;2022-07-06T00:44:34;5.00;;;2.40;;
57401;SDS011;43226;51.110;6.998;2022-07-06T00:46:59;4.23;;;2.47;;
57401;SDS011;43226;51.110;6.998;2022-07-06T00:49:25;7.13;;;2.80;;
57401;SDS011;43226;51.110;6.998;2022-07-06T00:52:09;6.90;;;2.90;;
57401;SDS011;43226;51.110;6.998;2022-07-06T00:54:34;5.23;;;3.07;;
57401;SDS011;43226;51.110;6.998;2022-07-06T00:56:59;5.77;;;2.80;;
57401;SDS011;43226;51.110;6.998;2022-07-06T00:59:24;5.73;;;2.53;;
57401;SDS011;43226;51.110;6.998;2022-07-06T01:01:51;8.67;;;2.47;;
57401;SDS011;43226;51.110;6.998;2022-07-06T01:04:16;9.33;;;2.57;;
57401;SDS011;43226;51.110;6.998;2022-07-06T01:06:41;5.27;;;2.67;;
57401;SDS011;43226;51.110;6.998;2022-07-06T01:09:07;5.90;;;2.53;;
57401;SDS011;43226;51.110;6.998;2022-07-06T01:11:32;10.50;;;2.80;;
57401;SDS011;43226;51.110;6.998;2022-07-06T01:13:59;11.40;;;3.30;;
57401;SDS011;43226;51.110;6.998;2022-07-06T01:16:24;7.30;;;2.40;;
57401;SDS011;43226;51.110;6.998;2022-07-06T01:18:50;8.20;;;2.97;;
57401;SDS011;43226;51.110;6.998;2022-07-06T01:21:15;5.53;;;2.50;;
57401;SDS011;43226;51.110;6.998;2022-07-06T01:23:44;8.53;;;3.40;;
57401;SDS011;43226;51.110;6.998;2022-07-06T01:26:10;3.43;;;2.20;;
57401;SDS011;43226;51.110;6.998;2022-07-06T01:28:36;6.57;;;2.43;;
57401;SDS011;43226;51.110;6.998;2022-07-06T01:31:01;6.73;;;2.73;;
57401;SDS011;43226;51.110;6.998;2022-07-06T01:33:26;6.87;;;2.93;;
57401;SDS011;43226;51.110;6.998;2022-07-06T01:35:51;8.53;;;3.33;;
57401;SDS011;43226;51.110;6.998;2022-07-06T01:38:16;3.97;;;3.17;;
57401;SDS011;43226;51.110;6.998;2022-07-06T01:40:42;8.83;;;3.50;;
57401;SDS011;43226;51.110;6.998;2022-07-06T01:43:07;7.40;;;2.90;;
57401;SDS011;43226;51.110;6.998;2022-07-06T01:45:32;11.80;;;3.40;;
57401;SDS011;43226;51.110;6.998;2022-07-06T01:47:58;7.60;;;2.73;;
57401;SDS011;43226;51.110;6.998;2022-07-06T01:50:23;8.27;;;2.93;;
57401;SDS011;43226;51.110;6.998;2022-07-06T01:52:48;10.70;;;2.73;;
57401;SDS011;43226;51.110;6.998;2022-07-06T01:55:13;5.30;;;2.90;;
57401;SDS011;43226;51.110;6.998;2022-07-06T01:57:38;4.40;;;2.47;;
57401;SDS011;43226;51.110;6.998;2022-07-06T02:00:05;9.27;;;2.70;;
57401;SDS011;43226;51.110;6.998;2022-07-06T02:02:31;5.33;;;3.20;;
57401;SDS011;43226;51.110;6.998;2022-07-06T02:04:56;5.63;;;2.60;;
57401;SDS011;43226;51.110;6.998;2022-07-06T02:07:21;3.37;;;2.83;;
57401;SDS011;43226;51.110;6.998;2022-07-06T02:09:46;6.03;;;3.47;;
57401;SDS011;43226;51.110;6.998;2022-07-06T02:12:12;6.47;;;2.83;;
57401;SDS011;43226;51.110;6.998;2022-07-06T02:14:37;5.93;;;2.70;;
57401;SDS011;43226;51.110;6.998;2022-07-06T02:17:02;6.30;;;3.10;;
57401;SDS011;43226;51.110;6.998;2022-07-06T02:19:27;10.20;;;2.83;;
57401;SDS011;43226;51.110;6.998;2022-07-06T02:21:52;7.93;;;3.00;;
57401;SDS011;43226;51.110;6.998;2022-07-06T02:24:18;5.50;;;2.30;;
57401;SDS011;43226;51.110;6.998;2022-07-06T02:26:43;5.33;;;2.63;;
57401;SDS011;43226;51.110;6.998;2022-07-06T02:29:08;5.20;;;2.83;;
57401;SDS011;43226;51.110;6.998;2022-07-06T02:31:33;6.63;;;2.50;;
57401;SDS011;43226;51.110;6.998;2022-07-06T02:33:58;10.37;;;2.70;;
57401;SDS011;43226;51.110;6.998;2022-07-06T02:36:24;5.70;;;2.90;;
57401;SDS011;43226;51.110;6.998;2022-07-06T02:38:49;10.20;;;3.57;;
57401;SDS011;43226;51.110;6.998;2022-07-06T02:41:14;11.10;;;2.77;;
57401;SDS011;43226;51.110;6.998;2022-07-06T02:43:39;4.20;;;2.50;;
57401;SDS011;43226;51.110;6.998;2022-07-06T02:46:05;6.40;;;2.63;;
57401;SDS011;43226;51.110;6.998;2022-07-06T02:48:30;7.47;;;3.30;;
57401;SDS011;43226;51.110;6.998;2022-07-06T02:50:55;9.33;;;3.30;;
57401;SDS011;43226;51.110;6.998;2022-07-06T02:53:20;5.63;;;3.17;;
57401;SDS011;43226;51.110;6.998;2022-07-06T02:55:46;5.47;;;2.83;;
57401;SDS011;43226;51.110;6.998;2022-07-06T02:58:11;5.67;;;2.50;;
57401;SDS011;43226;51.110;6.998;2022-07-06T03:00:36;5.90;;;2.70;;
57401;SDS011;43226;51.110;6.998;2022-07-06T03:03:01;3.30;;;3.00;;
57401;SDS011;43226;51.110;6.998;2022-07-06T03:05:27;9.53;;;3.50;;
57401;SDS011;43226;51.110;6.998;2022-07-06T03:07:52;3.73;;;2.60;;
57401;SDS011;43226;51.110;6.998;2022-07-06T03:10:17;9.93;;;3.10;;
57401;SDS011;43226;51.110;6.998;2022-07-06T03:12:43;10.40;;;3.70;;
57401;SDS011;43226;51.110;6.998;2022-07-06T03:15:08;8.30;;;2.50;;
57401;SDS011;43226;51.110;6.998;2022-07-06T03:17:37;6.40;;;2.97;;
57401;SDS011;43226;51.110;6.998;2022-07-06T03:20:03;7.00;;;2.90;;
57401;SDS011;43226;51.110;6.998;2022-07-06T03:22:29;5.13;;;2.83;;
57401;SDS011;43226;51.110;6.998;2022-07-06T03:24:55;7.37;;;3.03;;
57401;SDS011;43226;51.110;6.998;2022-07-06T03:27:20;13.30;;;3.40;;
57401;SDS011;43226;51.110;6.998;2022-07-06T03:29:46;9.27;;;3.03;;
57401;SDS011;43226;51.110;6.998;2022-07-06T03:32:11;4.40;;;3.03;;
57401;SDS011;43226;51.110;6.998;2022-07-06T03:34:36;6.00;;;2.87;;
57401;SDS011;43226;51.110;6.998;2022-07-06T03:37:01;7.63;;;3.17;;
57401;SDS011;43226;51.110;6.998;2022-07-06T03:39:27;5.57;;;2.87;;
57401;SDS011;43226;51.110;6.998;2022-07-06T03:41:52;6.27;;;3.70;;
57401;SDS011;43226;51.110;6.998;2022-07-06T03:44:17;8.27;;;3.07;;
57401;SDS011;43226;51.110;6.998;2022-07-06T03:46:42;6.33;;;3.37;;
57401;SDS011;43226;51.110;6.998;2022-07-06T03:49:08;4.43;;;3.03;;
57401;SDS011;43226;51.110;6.998;2022-07-06T03:51:33;8.10;;;3.13;;
57401;SDS011;43226;51.110;6.998;2022-07-06T03:53:58;10.80;;;3.90;;
57401;SDS011;43226;51.110;6.998;2022-07-06T03:56:23;3.23;;;2.67;;
57401;SDS011;43226;51.110;6.998;2022-07-06T03:58:58;7.40;;;3.50;;
57401;SDS011;43226;51.110;6.998;2022-07-06T04:01:23;4.73;;;2.90;;
57401;SDS011;43226;51.110;6.998;2022-07-06T04:03:48;5.53;;;3.40;;
57401;SDS011;43226;51.110;6.998;2022-07-06T04:06:13;5.33;;;2.70;;
57401;SDS011;43226;51.110;6.998;2022-07-06T04:08:39;5.40;;;3.27;;
57401;SDS011;43226;51.110;6.998;2022-07-06T04:11:04;9.53;;;3.97;;
57401;SDS011;43226;51.110;6.998;2022-07-06T04:13:29;8.33;;;3.50;;
57401;SDS011;43226;51.110;6.998;2022-07-06T04:15:54;3.50;;;2.80;;
57401;SDS011;43226;51.110;6.998;2022-07-06T04:18:20;14.43;;;3.27;;
57401;SDS011;43226;51.110;6.998;2022-07-06T04:20:45;11.37;;;4.77;;
57401;SDS011;43226;51.110;6.998;2022-07-06T04:23:10;7.17;;;3.53;;
57401;SDS011;43226;51.110;6.998;2022-07-06T04:25:36;3.00;;;2.47;;
57401;SDS011;43226;51.110;6.998;2022-07-06T04:28:01;6.97;;;3.63;;
57401;SDS011;43226;51.110;6.998;2022-07-06T04:30:26;4.20;;;2.90;;
57401;SDS011;43226;51.110;6.998;2022-07-06T04:32:51;4.13;;;2.90;;
57401;SDS011;43226;51.110;6.998;2022-07-06T04:35:16;5.73;;;3.47;;
57401;SDS011;43226;51.110;6.998;2022-07-06T04:37:42;4.70;;;2.80;;
57401;SDS011;43226;51.110;6.998;2022-07-06T04:40:07;8.30;;;2.90;;
57401;SDS011;43226;51.110;6.998;2022-07-06T04:42:32;7.13;;;3.20;;
57401;SDS011;43226;51.110;6.998;2022-07-06T04:44:57;4.97;;;2.90;;
57401;SDS011;43226;51.110;6.998;2022-07-06T04:47:23;5.50;;;2.60;;
57401;SDS011;43226;51.110;6.998;2022-07-06T04:49:48;2.83;;;2.40;;
57401;SDS011;43226;51.110;6.998;2022-07-06T04:52:13;3.23;;;2.37;;
57401;SDS011;43226;51.110;6.998;2022-07-06T04:54:38;3.60;;;2.70;;
57401;SDS011;43226;51.110;6.998;2022-07-06T04:57:04;4.60;;;2.57;;
57401;SDS011;43226;51.110;6.998;2022-07-06T04:59:29;6.80;;;3.20;;
57401;SDS011;43226;51.110;6.998;2022-07-06T05:01:54;5.00;;;3.30;;
57401;SDS011;43226;51.110;6.998;2022-07-06T05:04:19;5.40;;;3.43;;
57401;SDS011;43226;51.110;6.998;2022-07-06T05:06:45;7.10;;;2.73;;
57401;SDS011;43226;51.110;6.998;2022-07-06T05:09:10;6.70;;;3.23;;
57401;SDS011;43226;51.110;6.998;2022-07-06T05:11:36;6.73;;;3.50;;
57401;SDS011;43226;51.110;6.998;2022-07-06T05:14:02;9.57;;;3.33;;
57401;SDS011;43226;51.110;6.998;2022-07-06T05:16:27;4.37;;;3.53;;
57401;SDS011;43226;51.110;6.998;2022-07-06T05:18:52;4.70;;;3.60;;
57401;SDS011;43226;51.110;6.998;2022-07-06T05:21:17;8.57;;;3.20;;
57401;SDS011;43226;51.110;6.998;2022-07-06T05:23:43;8.07;;;3.63;;
57401;SDS011;43226;51.110;6.998;2022-07-06T05:26:08;7.90;;;3.80;;
57401;SDS011;43226;51.110;6.998;2022-07-06T05:28:33;10.17;;;3.97;;
57401;SDS011;43226;51.110;6.998;2022-07-06T05:30:59;7.67;;;4.07;;
57401;SDS011;43226;51.110;6.998;2022-07-06T05:33:24;8.33;;;3.50;;
57401;SDS011;43226;51.110;6.998;2022-07-06T05:35:49;9.30;;;3.53;;
57401;SDS011;43226;51.110;6.998;2022-07-06T05:38:15;8.03;;;4.87;;
57401;SDS011;43226;51.110;6.998;2022-07-06T05:40:40;7.77;;;3.80;;
57401;SDS011;43226;51.110;6.998;2022-07-06T05:43:05;6.70;;;3.47;;
57401;SDS011;43226;51.110;6.998;2022-07-06T05:45:30;8.97;;;3.67;;
57401;SDS011;43226;51.110;6.998;2022-07-06T05:47:56;5.20;;;3.30;;
57401;SDS011;43226;51.110;6.998;2022-07-06T05:50:40;5.00;;;3.50;;
57401;SDS011;43226;51.110;6.998;2022-07-06T05:53:05;5.90;;;3.17;;
57401;SDS011;43226;51.110;6.998;2022-07-06T05:55:30;8.03;;;3.53;;
57401;SDS011;43226;51.110;6.998;2022-07-06T05:57:56;9.53;;;3.43;;
57401;SDS011;43226;51.110;6.998;2022-07-06T06:00:22;7.60;;;3.30;;
57401;SDS011;43226;51.110;6.998;2022-07-06T06:02:47;6.70;;;2.83;;
57401;SDS011;43226;51.110;6.998;2022-07-06T06:05:13;9.00;;;2.93;;
57401;SDS011;43226;51.110;6.998;2022-07-06T06:07:38;5.27;;;2.90;;
57401;SDS011;43226;51.110;6.998;2022-07-06T06:10:04;7.53;;;2.70;;
57401;SDS011;43226;51.110;6.998;2022-07-06T06:12:29;5.77;;;2.73;;
57401;SDS011;43226;51.110;6.998;2022-07-06T06:14:55;4.83;;;3.23;;
57401;SDS011;43226;51.110;6.998;2022-07-06T06:17:20;14.83;;;3.13;;
57401;SDS011;43226;51.110;6.998;2022-07-06T06:19:45;5.33;;;3.17;;
57401;SDS011;43226;51.110;6.998;2022-07-06T06:22:10;4.13;;;2.90;;
57401;SDS011;43226;51.110;6.998;2022-07-06T06:24:35;5.50;;;3.30;;
57401;SDS011;43226;51.110;6.998;2022-07-06T06:27:01;3.97;;;2.87;;
57401;SDS011;43226;51.110;6.998;2022-07-06T06:29:26;3.30;;;2.33;;
57401;SDS011;43226;51.110;6.998;2022-07-06T06:31:51;6.40;;;2.70;;
57401;SDS011;43226;51.110;6.998;2022-07-06T06:34:16;6.47;;;2.40;;
57401;SDS011;43226;51.110;6.998;2022-07-06T06:36:41;7.67;;;3.00;;
57401;SDS011;43226;51.110;6.998;2022-07-06T06:39:07;4.73;;;2.80;;
57401;SDS011;43226;51.110;6.998;2022-07-06T06:41:32;4.67;;;2.70;;
57401;SDS011;43226;51.110;6.998;2022-07-06T06:43:57;6.17;;;2.80;;
57401;SDS011;43226;51.110;6.998;2022-07-06T06:46:22;5.87;;;2.73;;
57401;SDS011;43226;51.110;6.998;2022-07-06T06:48:47;9.90;;;2.70;;
57401;SDS011;43226;51.110;6.998;2022-07-06T06:51:12;5.27;;;2.93;;
57401;SDS011;43226;51.110;6.998;2022-07-06T06:53:38;6.77;;;2.90;;
57401;SDS011;43226;51.110;6.998;2022-07-06T06:56:03;4.13;;;2.30;;
57401;SDS011;43226;51.110;6.998;2022-07-06T06:58:28;11.10;;;2.90;;
57401;SDS011;43226;51.110;6.998;2022-07-06T07:00:53;5.10;;;3.03;;
57401;SDS011;43226;51.110;6.998;2022-07-06T07:03:19;3.73;;;1.77;;
57401;SDS011;43226;51.110;6.998;2022-07-06T07:05:45;2.93;;;1.30;;
57401;SDS011;43226;51.110;6.998;2022-07-06T07:08:10;6.23;;;1.80;;
57401;SDS011;43226;51.110;6.998;2022-07-06T07:10:35;4.00;;;1.23;;
57401;SDS011;43226;51.110;6.998;2022-07-06T07:13:00;5.67;;;1.57;;
57401;SDS011;43226;51.110;6.998;2022-07-06T07:15:26;5.90;;;1.80;;
57401;SDS011;43226;51.110;6.998;2022-07-06T07:17:51;7.27;;;1.43;;
57401;SDS011;43226;51.110;6.998;2022-07-06T07:20:16;4.50;;;1.60;;
57401;SDS011;43226;51.110;6.998;2022-07-06T07:22:41;3.63;;;1.30;;
57401;SDS011;43226;51.110;6.998;2022-07-06T07:25:06;6.20;;;2.80;;
57401;SDS011;43226;51.110;6.998;2022-07-06T07:27:32;6.13;;;3.20;;
57401;SDS011;43226;51.110;6.998;2022-07-06T07:29:57;4.07;;;2.33;;
57401;SDS011;43226;51.110;6.998;2022-07-06T07:32:23;4.60;;;2.07;;
57401;SDS011;43226;51.110;6.998;2022-07-06T07:34:48;4.50;;;1.67;;
57401;SDS011;43226;51.110;6.998;2022-07-06T07:37:13;6.37;;;1.77;;
57401;SDS011;43226;51.110;6.998;2022-07-06T07:39:38;4.70;;;1.20;;
57401;SDS011;43226;51.110;6.998;2022-07-06T07:42:03;3.47;;;1.20;;
57401;SDS011;43226;51.110;6.998;2022-07-06T07:44:29;2.57;;;1.80;;
57401;SDS011;43226;51.110;6.998;2022-07-06T07:46:54;2.47;;;1.20;;
57401;SDS011;43226;51.110;6.998;2022-07-06T07:49:19;3.20;;;1.30;;
57401;SDS011;43226;51.110;6.998;2022-07-06T07:51:46;3.80;;;1.80;;
57401;SDS011;43226;51.110;6.998;2022-07-06T07:54:11;6.20;;;1.33;;
57401;SDS011;43226;51.110;6.998;2022-07-06T07:56:37;7.27;;;1.73;;
57401;SDS011;43226;51.110;6.998;2022-07-06T07:59:02;2.57;;;1.27;;
57401;SDS011;43226;51.110;6.998;2022-07-06T08:01:27;4.87;;;1.83;;
57401;SDS011;43226;51.110;6.998;2022-07-06T08:03:52;3.57;;;1.20;;
57401;SDS011;43226;51.110;6.998;2022-07-06T08:06:17;3.30;;;1.40;;
57401;SDS011;43226;51.110;6.998;2022-07-06T08:08:43;3.23;;;2.17;;
57401;SDS011;43226;51.110;6.998;2022-07-06T08:11:08;2.20;;;1.40;;
57401;SDS011;43226;51.110;6.998;2022-07-06T08:13:33;4.07;;;1.20;;
57401;SDS011;43226;51.110;6.998;2022-07-06T08:15:58;3.50;;;1.40;;
57401;SDS011;43226;51.110;6.998;2022-07-06T08:18:23;4.70;;;1.33;;
57401;SDS011;43226;51.110;6.998;2022-07-06T08:20:49;4.57;;;1.20;;
57401;SDS011;43226;51.110;6.998;2022-07-06T08:23:14;2.13;;;1.07;;
57401;SDS011;43226;51.110;6.998;2022-07-06T08:25:39;4.17;;;1.50;;
57401;SDS011;43226;51.110;6.998;2022-07-06T08:28:04;4.63;;;1.23;;
57401;SDS011;43226;51.110;6.998;2022-07-06T08:30:29;1.20;;;1.10;;
57401;SDS011;43226;51.110;6.998;2022-07-06T08:32:56;4.87;;;1.40;;
57401;SDS011;43226;51.110;6.998;2022-07-06T08:35:21;4.93;;;1.37;;
57401;SDS011;43226;51.110;6.998;2022-07-06T08:37:46;3.33;;;1.07;;
57401;SDS011;43226;51.110;6.998;2022-07-06T08:40:12;3.40;;;1.30;;
57401;SDS011;43226;51.110;6.998;2022-07-06T08:42:37;2.13;;;1.00;;
57401;SDS011;43226;51.110;6.998;2022-07-06T08:45:03;1.37;;;0.83;;
57401;SDS011;43226;51.110;6.998;2022-07-06T08:47:29;2.30;;;1.03;;
57401;SDS011;43226;51.110;6.998;2022-07-06T08:49:55;5.60;;;1.23;;
57401;SDS011;43226;51.110;6.998;2022-07-06T08:52:21;4.03;;;1.10;;
57401;SDS011;43226;51.110;6.998;2022-07-06T08:54:47;5.30;;;1.00;;
57401;SDS011;43226;51.110;6.998;2022-07-06T08:57:12;2.67;;;0.77;;
57401;SDS011;43226;51.110;6.998;2022-07-06T08:59:38;2.30;;;1.00;;
57401;SDS011;43226;51.110;6.998;2022-07-06T09:02:04;2.00;;;1.00;;
57401;SDS011;43226;51.110;6.998;2022-07-06T09:04:29;3.33;;;1.30;;
57401;SDS011;43226;51.110;6.998;2022-07-06T09:06:54;1.50;;;1.00;;
57401;SDS011;43226;51.110;6.998;2022-07-06T09:09:20;8.50;;;1.07;;
57401;SDS011;43226;51.110;6.998;2022-07-06T09:11:46;2.70;;;1.10;;
57401;SDS011;43226;51.110;6.998;2022-07-06T09:14:11;3.60;;;1.47;;
57401;SDS011;43226;51.110;6.998;2022-07-06T09:16:37;4.67;;;1.10;;
57401;SDS011;43226;51.110;6.998;2022-07-06T09:19:02;3.23;;;0.90;;
57401;SDS011;43226;51.110;6.998;2022-07-06T09:21:28;1.63;;;0.90;;
57401;SDS011;43226;51.110;6.998;2022-07-06T09:23:58;1.40;;;0.80;;
57401;SDS011;43226;51.110;6.998;2022-07-06T09:26:23;2.10;;;0.87;;
57401;SDS011;43226;51.110;6.998;2022-07-06T09:28:49;2.50;;;1.00;;
57401;SDS011;43226;51.110;6.998;2022-07-06T09:31:14;1.70;;;1.00;;
57401;SDS011;43226;51.110;6.998;2022-07-06T09:33:52;2.37;;;0.90;;
57401;SDS011;43226;51.110;6.998;2022-07-06T09:36:18;2.10;;;1.00;;
57401;SDS011;43226;51.110;6.998;2022-07-06T09:39:13;3.60;;;1.57;;
57401;SDS011;43226;51.110;6.998;2022-07-06T09:41:39;5.20;;;1.10;;
57401;SDS011;43226;51.110;6.998;2022-07-06T09:44:04;1.87;;;1.17;;
57401;SDS011;43226;51.110;6.998;2022-07-06T09:46:32;3.77;;;0.87;;
57401;SDS011;43226;51.110;6.998;2022-07-06T09:49:02;1.37;;;0.90;;
57401;SDS011;43226;51.110;6.998;2022-07-06T09:51:29;1.03;;;0.80;;
57401;SDS011;43226;51.110;6.998;2022-07-06T09:53:55;4.07;;;1.30;;
57401;SDS011;43226;51.110;6.998;2022-07-06T09:56:24;5.30;;;1.00;;
57401;SDS011;43226;51.110;6.998;2022-07-06T09:59:00;2.13;;;0.63;;
57401;SDS011;43226;51.110;6.998;2022-07-06T10:01:25;2.17;;;1.00;;
57401;SDS011;43226;51.110;6.998;2022-07-06T10:03:51;2.57;;;1.07;;
57401;SDS011;43226;51.110;6.998;2022-07-06T10:06:16;1.70;;;0.80;;
57401;SDS011;43226;51.110;6.998;2022-07-06T10:08:41;4.83;;;1.17;;
57401;SDS011;43226;51.110;6.998;2022-07-06T10:11:06;2.40;;;1.30;;
57401;SDS011;43226;51.110;6.998;2022-07-06T10:13:32;1.73;;;0.90;;
57401;SDS011;43226;51.110;6.998;2022-07-06T10:15:59;2.47;;;1.00;;
57401;SDS011;43226;51.110;6.998;2022-07-06T10:18:25;2.20;;;1.10;;
57401;SDS011;43226;51.110;6.998;2022-07-06T10:20:50;6.00;;;1.27;;
57401;SDS011;43226;51.110;6.998;2022-07-06T10:23:15;2.77;;;1.23;;
57401;SDS011;43226;51.110;6.998;2022-07-06T10:25:41;2.20;;;1.20;;
57401;SDS011;43226;51.110;6.998;2022-07-06T10:28:07;1.40;;;1.00;;
57401;SDS011;43226;51.110;6.998;2022-07-06T10:30:39;4.57;;;1.50;;
57401;SDS011;43226;51.110;6.998;2022-07-06T10:33:04;4.67;;;1.20;;
57401;SDS011;43226;51.110;6.998;2022-07-06T10:35:29;2.70;;;1.13;;
57401;SDS011;43226;51.110;6.998;2022-07-06T10:40:38;2.27;;;1.20;;
57401;SDS011;43226;51.110;6.998;2022-07-06T10:43:22;4.77;;;1.10;;
57401;SDS011;43226;51.110;6.998;2022-07-06T10:50:47;3.10;;;1.10;;
57401;SDS011;43226;51.110;6.998;2022-07-06T10:53:13;1.83;;;1.07;;
57401;SDS011;43226;51.110;6.998;2022-07-06T10:55:40;1.27;;;1.03;;
57401;SDS011;43226;51.110;6.998;2022-07-06T10:58:06;3.70;;;1.20;;
57401;SDS011;43226;51.110;6.998;2022-07-06T11:04:18;3.73;;;1.20;;
57401;SDS011;43226;51.110;6.998;2022-07-06T11:06:13;2.30;;;1.13;;
57401;SDS011;43226;51.110;6.998;2022-07-06T11:08:49;3.40;;;1.20;;
57401;SDS011;43226;51.110;6.998;2022-07-06T11:11:16;2.27;;;1.63;;
57401;SDS011;43226;51.110;6.998;2022-07-06T11:13:55;3.20;;;1.40;;
57401;SDS011;43226;51.110;6.998;2022-07-06T11:16:21;1.73;;;1.30;;
57401;SDS011;43226;51.110;6.998;2022-07-06T11:19:00;1.77;;;1.67;;
57401;SDS011;43226;51.110;6.998;2022-07-06T11:21:36;4.00;;;1.33;;
57401;SDS011;43226;51.110;6.998;2022-07-06T11:24:01;4.70;;;2.03;;
57401;SDS011;43226;51.110;6.998;2022-07-06T11:26:27;1.90;;;1.30;;
57401;SDS011;43226;51.110;6.998;2022-07-06T11:28:52;5.70;;;1.50;;
57401;SDS011;43226;51.110;6.998;2022-07-06T11:31:18;1.57;;;1.40;;
57401;SDS011;43226;51.110;6.998;2022-07-06T11:33:46;1.53;;;1.43;;
57401;SDS011;43226;51.110;6.998;2022-07-06T11:38:40;1.60;;;1.30;;
57401;SDS011;43226;51.110;6.998;2022-07-06T11:41:06;3.33;;;1.10;;
57401;SDS011;43226;51.110;6.998;2022-07-06T11:43:31;2.10;;;1.23;;
57401;SDS011;43226;51.110;6.998;2022-07-06T11:45:56;3.70;;;1.30;;
57401;SDS011;43226;51.110;6.998;2022-07-06T11:48:22;3.73;;;1.40;;
57401;SDS011;43226;51.110;6.998;2022-07-06T11:51:00;2.57;;;1.40;;
57401;SDS011;43226;51.110;6.998;2022-07-06T11:53:25;4.23;;;1.50;;
57401;SDS011;43226;51.110;6.998;2022-07-06T11:55:50;2.67;;;1.30;;
57401;SDS011;43226;51.110;6.998;2022-07-06T11:58:16;7.77;;;1.30;;
57401;SDS011;43226;51.110;6.998;2022-07-06T12:00:43;4.33;;;1.30;;
57401;SDS011;43226;51.110;6.998;2022-07-06T12:03:08;3.70;;;1.43;;
57401;SDS011;43226;51.110;6.998;2022-07-06T12:05:33;3.00;;;1.20;;
57401;SDS011;43226;51.110;6.998;2022-07-06T12:08:08;4.23;;;1.10;;
57401;SDS011;43226;51.110;6.998;2022-07-06T12:10:34;3.73;;;1.17;;
57401;SDS011;43226;51.110;6.998;2022-07-06T12:13:04;3.10;;;1.03;;
57401;SDS011;43226;51.110;6.998;2022-07-06T12:15:29;2.50;;;0.97;;
57401;SDS011;43226;51.110;6.998;2022-07-06T12:17:54;4.43;;;1.20;;
57401;SDS011;43226;51.110;6.998;2022-07-06T12:20:19;1.27;;;1.00;;
57401;SDS011;43226;51.110;6.998;2022-07-06T12:22:45;2.70;;;1.00;;
57401;SDS011;43226;51.110;6.998;2022-07-06T12:25:10;3.53;;;1.33;;
57401;SDS011;43226;51.110;6.998;2022-07-06T12:27:35;1.00;;;0.90;;
57401;SDS011;43226;51.110;6.998;2022-07-06T12:30:10;3.43;;;1.03;;
57401;SDS011;43226;51.110;6.998;2022-07-06T12:32:36;3.33;;;1.00;;
57401;SDS011;43226;51.110;6.998;2022-07-06T12:37:30;2.70;;;1.20;;
57401;SDS011;43226;51.110;6.998;2022-07-06T12:39:55;2.57;;;1.10;;
57401;SDS011;43226;51.110;6.998;2022-07-06T12:42:20;2.73;;;1.40;;
57401;SDS011;43226;51.110;6.998;2022-07-06T12:44:49;3.03;;;1.23;;
57401;SDS011;43226;51.110;6.998;2022-07-06T12:47:22;1.30;;;0.90;;
57401;SDS011;43226;51.110;6.998;2022-07-06T12:49:48;1.97;;;1.33;;
57401;SDS011;43226;51.110;6.998;2022-07-06T12:52:14;2.43;;;1.10;;
57401;SDS011;43226;51.110;6.998;2022-07-06T12:59:31;1.43;;;1.23;;
57401;SDS011;43226;51.110;6.998;2022-07-06T13:01:56;3.43;;;1.10;;
57401;SDS011;43226;51.110;6.998;2022-07-06T13:04:22;1.30;;;1.00;;
57401;SDS011;43226;51.110;6.998;2022-07-06T13:06:48;4.70;;;1.30;;
57401;SDS011;43226;51.110;6.998;2022-07-06T13:09:13;5.07;;;1.30;;
57401;SDS011;43226;51.110;6.998;2022-07-06T13:11:40;2.37;;;1.17;;
57401;SDS011;43226;51.110;6.998;2022-07-06T13:14:05;3.53;;;1.20;;
57401;SDS011;43226;51.110;6.998;2022-07-06T13:16:30;2.40;;;1.25;;
57401;SDS011;43226;51.110;6.998;2022-07-06T13:18:59;2.50;;;1.33;;
57401;SDS011;43226;51.110;6.998;2022-07-06T13:21:24;3.43;;;1.53;;
57401;SDS011;43226;51.110;6.998;2022-07-06T13:23:49;2.50;;;1.00;;
57401;SDS011;43226;51.110;6.998;2022-07-06T13:26:15;2.67;;;1.17;;
57401;SDS011;43226;51.110;6.998;2022-07-06T13:28:40;2.47;;;0.87;;
57401;SDS011;43226;51.110;6.998;2022-07-06T13:31:05;2.20;;;1.33;;
57401;SDS011;43226;51.110;6.998;2022-07-06T13:33:31;1.70;;;1.10;;
57401;SDS011;43226;51.110;6.998;2022-07-06T13:35:56;2.40;;;1.10;;
57401;SDS011;43226;51.110;6.998;2022-07-06T13:38:21;5.27;;;2.97;;
57401;SDS011;43226;51.110;6.998;2022-07-06T13:40:46;4.07;;;1.93;;
57401;SDS011;43226;51.110;6.998;2022-07-06T13:43:11;3.20;;;1.30;;
57401;SDS011;43226;51.110;6.998;2022-07-06T13:45:36;12.37;;;7.77;;
57401;SDS011;43226;51.110;6.998;2022-07-06T13:48:02;2.67;;;1.20;;
57401;SDS011;43226;51.110;6.998;2022-07-06T13:50:27;10.37;;;3.70;;
57401;SDS011;43226;51.110;6.998;2022-07-06T13:52:57;5.30;;;1.57;;
57401;SDS011;43226;51.110;6.998;2022-07-06T13:55:22;10.20;;;6.60;;
57401;SDS011;43226;51.110;6.998;2022-07-06T13:57:47;15.10;;;11.10;;
57401;SDS011;43226;51.110;6.998;2022-07-06T14:00:13;6.63;;;1.20;;
57401;SDS011;43226;51.110;6.998;2022-07-06T14:02:39;3.30;;;1.50;;
57401;SDS011;43226;51.110;6.998;2022-07-06T14:05:04;5.70;;;1.40;;
57401;SDS011;43226;51.110;6.998;2022-07-06T14:07:30;4.50;;;1.30;;
57401;SDS011;43226;51.110;6.998;2022-07-06T14:09:55;1.30;;;1.20;;
57401;SDS011;43226;51.110;6.998;2022-07-06T14:12:20;3.53;;;1.63;;
57401;SDS011;43226;51.110;6.998;2022-07-06T14:14:48;4.70;;;1.40;;
57401;SDS011;43226;51.110;6.998;2022-07-06T14:17:13;1.90;;;1.30;;
57401;SDS011;43226;51.110;6.998;2022-07-06T14:19:39;3.63;;;1.40;;
57401;SDS011;43226;51.110;6.998;2022-07-06T14:22:04;2.50;;;1.27;;
57401;SDS011;43226;51.110;6.998;2022-07-06T14:24:29;4.93;;;1.17;;
57401;SDS011;43226;51.110;6.998;2022-07-06T14:26:54;2.50;;;1.03;;
57401;SDS011;43226;51.110;6.998;2022-07-06T14:29:19;2.30;;;1.10;;
57401;SDS011;43226;51.110;6.998;2022-07-06T14:31:44;3.60;;;1.10;;
57401;SDS011;43226;51.110;6.998;2022-07-06T14:34:12;4.80;;;1.57;;
57401;SDS011;43226;51.110;6.998;2022-07-06T14:36:37;2.57;;;1.10;;
57401;SDS011;43226;51.110;6.998;2022-07-06T14:39:03;2.73;;;1.40;;
57401;SDS011;43226;51.110;6.998;2022-07-06T14:41:29;1.37;;;1.00;;
57401;SDS011;43226;51.110;6.998;2022-07-06T14:43:54;5.40;;;1.50;;
57401;SDS011;43226;51.110;6.998;2022-07-06T14:46:19;1.40;;;1.23;;
57401;SDS011;43226;51.110;6.998;2022-07-06T14:48:45;4.03;;;1.83;;
57401;SDS011;43226;51.110;6.998;2022-07-06T14:51:10;3.90;;;1.23;;
57401;SDS011;43226;51.110;6.998;2022-07-06T14:53:35;1.50;;;1.23;;
57401;SDS011;43226;51.110;6.998;2022-07-06T14:56:00;3.90;;;0.97;;
57401;SDS011;43226;51.110;6.998;2022-07-06T14:58:25;10.00;;;1.20;;
57401;SDS011;43226;51.110;6.998;2022-07-06T15:00:51;4.33;;;1.23;;